Time;durP1;ratioP1;P1;durP2;ratioP2;P2;SDS_P1;SDS_P2;PMS_P1;PMS_P2;Temp;Humidity;BMP_temperature;BMP_pressure;BME280_temperature;BME280_humidity;BME280_pressure;Samples;Min_cycle;Max_cycle;Signal;HPM_P1;HPM_P2
2023/01/26 00:03:07;;;;;;;38.60;32.03;;;5.40;99.90;;;;;;10597245;27;20199;-79
2023/01/26 00:08:11;;;;;;;41.87;30.70;;;5.40;99.90;;;;;;10616966;27;20245;-79
2023/01/26 00:13:13;;;;;;;38.73;33.87;;;5.30;99.90;;;;;;10619260;27;20197;-79
2023/01/26 00:18:15;;;;;;;41.17;31.20;;;5.20;99.90;;;;;;10601002;28;20237;-80
2023/01/26 00:23:19;;;;;;;36.47;30.40;;;5.10;99.90;;;;;;10596846;27;20204;-79
2023/01/26 00:28:22;;;;;;;39.33;30.97;;;5.10;99.90;;;;;;10638687;27;20226;-80
2023/01/26 00:33:24;;;;;;;35.27;30.10;;;5.10;99.90;;;;;;10628176;28;20198;-80
2023/01/26 00:38:27;;;;;;;40.73;32.30;;;5.10;99.90;;;;;;10604407;28;20215;-78
2023/01/26 00:43:30;;;;;;;34.70;28.80;;;5.10;99.90;;;;;;10606980;28;20190;-79
2023/01/26 00:48:32;;;;;;;37.50;31.13;;;5.00;99.90;;;;;;10629076;27;20236;-78
2023/01/26 00:53:36;;;;;;;36.33;29.65;;;5.00;99.90;;;;;;10614948;27;20210;-78
2023/01/26 00:58:39;;;;;;;33.20;27.10;;;5.10;99.90;;;;;;10627288;27;20206;-79
2023/01/26 01:03:41;;;;;;;95.03;42.53;;;5.20;99.90;;;;;;10614028;27;20199;-78
2023/01/26 01:08:45;;;;;;;34.00;28.10;;;5.00;99.70;;;;;;10600953;27;20283;-79
2023/01/26 01:13:47;;;;;;;34.78;28.33;;;4.80;99.90;;;;;;10616980;27;20201;-78
2023/01/26 01:18:52;;;;;;;38.60;31.80;;;4.80;99.90;;;;;;10574930;28;20235;-79
2023/01/26 01:23:55;;;;;;;30.60;23.13;;;4.80;99.90;;;;;;10616223;27;20202;-80
2023/01/26 01:28:58;;;;;;;37.93;29.63;;;4.70;99.90;;;;;;10637795;27;20226;-78
2023/01/26 01:34:00;;;;;;;35.55;28.02;;;4.70;99.90;;;;;;10633761;27;20203;-78
2023/01/26 01:39:03;;;;;;;36.93;29.10;;;4.80;99.90;;;;;;10644170;22;20318;-79
2023/01/26 01:44:17;;;;;;;35.77;28.37;;;4.90;99.90;;;;;;10672025;27;20204;-79
2023/01/26 01:49:23;;;;;;;35.63;28.53;;;4.80;99.90;;;;;;10582076;27;20308;-78
2023/01/26 01:54:32;;;;;;;35.97;28.63;;;4.80;99.90;;;;;;10571799;27;20191;-78
2023/01/26 01:59:34;;;;;;;35.70;29.10;;;4.80;99.90;;;;;;10568001;27;20617;-81
2023/01/26 02:04:37;;;;;;;40.27;30.30;;;4.80;99.90;;;;;;10600429;27;20633;-81
2023/01/26 02:15:02;;;;;;;37.23;29.27;;;4.70;99.90;;;;;;10607828;27;20539;-79
2023/01/26 02:20:11;;;;;;;39.37;29.80;;;4.70;99.90;;;;;;10655484;27;20228;-78
2023/01/26 02:25:33;;;;;;;35.63;27.70;;;4.70;99.90;;;;;;10581058;27;20288;-78
2023/01/26 02:30:36;;;;;;;33.50;27.83;;;4.90;99.90;;;;;;10585690;27;20234;-80
2023/01/26 02:35:39;;;;;;;35.57;27.13;;;4.90;99.90;;;;;;10665308;27;20194;-77
2023/01/26 02:40:46;;;;;;;34.93;27.47;;;4.80;99.90;;;;;;10589942;27;20309;-78
2023/01/26 02:45:52;;;;;;;37.47;28.40;;;4.80;99.90;;;;;;10631528;27;20289;-79
2023/01/26 02:50:54;;;;;;;34.83;25.73;;;4.70;99.90;;;;;;10617234;27;20218;-79
2023/01/26 02:55:56;;;;;;;34.47;27.57;;;4.70;99.90;;;;;;10653321;27;20198;-79
2023/01/26 03:01:00;;;;;;;33.27;27.03;;;4.70;99.90;;;;;;10590010;27;20221;-81
2023/01/26 03:06:03;;;;;;;31.92;24.42;;;4.70;99.90;;;;;;10598701;27;20204;-81
2023/01/26 03:11:07;;;;;;;31.03;25.00;;;4.80;99.90;;;;;;10629721;27;20215;-80
2023/01/26 03:16:12;;;;;;;31.73;24.43;;;4.80;99.90;;;;;;10654282;27;20252;-79
2023/01/26 03:32:12;;;;;;;29.97;24.07;;;4.50;99.90;;;;;;10542665;27;20194;-80
2023/01/26 03:37:20;;;;;;;30.17;24.73;;;4.50;99.90;;;;;;10598345;27;20279;-81
2023/01/26 03:58:37;;;;;;;25.77;21.67;;;4.70;99.90;;;;;;10589298;27;20283;-78
2023/01/26 04:09:00;;;;;;;29.73;25.03;;;4.70;99.90;;;;;;10605330;27;20297;-79
2023/01/26 04:24:44;;;;;;;32.80;25.13;;;4.40;99.90;;;;;;10604242;27;20202;-79
2023/01/26 04:29:46;;;;;;;32.67;23.67;;;4.40;99.90;;;;;;10602856;27;20309;-79
2023/01/26 04:34:51;;;;;;;29.87;22.37;;;4.40;99.90;;;;;;10583488;28;20207;-79
2023/01/26 04:39:57;;;;;;;26.65;22.05;;;4.40;99.90;;;;;;10601864;28;20296;-80
2023/01/26 04:44:59;;;;;;;26.70;21.83;;;4.60;99.90;;;;;;10606016;28;20202;-79
2023/01/26 04:50:05;;;;;;;25.07;20.90;;;4.60;99.90;;;;;;10607171;28;20222;-79
2023/01/26 04:55:08;;;;;;;24.87;20.50;;;4.60;99.90;;;;;;10602805;28;20268;-80
2023/01/26 05:00:12;;;;;;;26.10;20.65;;;4.50;99.90;;;;;;10593775;27;20221;-80
2023/01/26 05:05:17;;;;;;;24.87;21.97;;;4.60;99.90;;;;;;10582874;28;20219;-80
2023/01/26 05:10:20;;;;;;;24.80;20.87;;;4.60;99.90;;;;;;10582247;28;20625;-81
2023/01/26 05:15:53;;;;;;;24.47;21.13;;;4.60;99.90;;;;;;10599129;28;20264;-81
2023/01/26 05:21:17;;;;;;;24.77;21.20;;;4.50;99.90;;;;;;10577510;28;20250;-78
2023/01/26 05:26:25;;;;;;;27.67;23.50;;;4.40;99.90;;;;;;10598462;28;20202;-79
2023/01/26 05:31:31;;;;;;;27.45;22.05;;;4.50;99.90;;;;;;10590429;27;20202;-80
2023/01/26 05:36:39;;;;;;;31.40;24.30;;;4.50;99.90;;;;;;10616870;27;20483;-82
2023/01/26 05:41:41;;;;;;;27.20;22.67;;;4.50;99.90;;;;;;10586054;27;20723;-79
2023/01/26 05:47:06;;;;;;;25.20;21.33;;;4.30;99.90;;;;;;10596960;27;20244;-79
2023/01/26 05:52:17;;;;;;;23.60;20.47;;;4.20;99.90;;;;;;10608040;27;20205;-80
2023/01/26 05:57:20;;;;;;;25.23;21.97;;;4.20;99.90;;;;;;10615367;27;20444;-80
2023/01/26 06:02:29;;;;;;;23.07;20.03;;;4.20;99.90;;;;;;10614915;27;20201;-81
2023/01/26 06:07:33;;;;;;;26.13;22.07;;;4.10;99.90;;;;;;10579996;27;20826;-80
2023/01/26 06:12:53;;;;;;;24.40;20.70;;;4.10;99.90;;;;;;10595634;27;20202;-79
2023/01/26 06:18:14;;;;;;;20.83;18.30;;;4.00;99.90;;;;;;10590135;27;20210;-79
2023/01/26 06:23:25;;;;;;;23.93;20.30;;;4.10;99.90;;;;;;10604914;27;20432;-80
2023/01/26 06:28:30;;;;;;;24.00;21.00;;;4.20;99.90;;;;;;10609764;27;20254;-79
2023/01/26 06:33:34;;;;;;;25.47;21.60;;;4.20;99.90;;;;;;10591414;27;20209;-80
2023/01/26 06:38:44;;;;;;;26.53;21.07;;;4.30;99.90;;;;;;10591745;27;20779;-79
2023/01/26 06:43:48;;;;;;;24.67;22.03;;;4.20;99.90;;;;;;10592144;27;20202;-80
2023/01/26 06:48:50;;;;;;;25.30;21.33;;;4.10;99.90;;;;;;10607521;27;20207;-79
2023/01/26 06:53:55;;;;;;;28.10;21.40;;;4.00;99.90;;;;;;10608704;27;20552;-79
2023/01/26 06:59:24;;;;;;;21.25;18.83;;;4.00;99.90;;;;;;10562132;27;20225;-80
2023/01/26 07:04:50;;;;;;;24.43;20.80;;;4.10;99.90;;;;;;10597248;27;20194;-80
2023/01/26 07:09:53;;;;;;;23.50;21.10;;;4.00;99.90;;;;;;10608181;27;20222;-80
2023/01/26 07:14:55;;;;;;;26.43;21.80;;;3.90;99.90;;;;;;10592104;27;20226;-80
2023/01/26 07:19:57;;;;;;;24.05;21.35;;;3.90;99.90;;;;;;10608235;27;20219;-80
2023/01/26 07:25:01;;;;;;;22.47;20.07;;;4.00;99.90;;;;;;10591476;27;20615;-80
2023/01/26 07:30:03;;;;;;;25.03;21.30;;;4.00;99.90;;;;;;10608046;27;20305;-80
2023/01/26 07:35:06;;;;;;;24.30;20.87;;;3.90;99.90;;;;;;10592672;27;20289;-80
2023/01/26 07:40:11;;;;;;;23.27;20.83;;;3.90;99.90;;;;;;10610963;22;20624;-80
2023/01/26 07:45:16;;;;;;;21.40;19.10;;;3.90;99.90;;;;;;10546285;28;20207;-78
2023/01/26 07:50:20;;;;;;;23.73;20.17;;;3.90;99.90;;;;;;10527764;28;20222;-78
2023/01/26 07:55:25;;;;;;;23.30;20.53;;;3.90;99.90;;;;;;10541183;28;20598;-80
2023/01/26 08:00:27;;;;;;;21.03;18.60;;;3.90;99.90;;;;;;10534808;28;20683;-80
2023/01/26 08:05:29;;;;;;;24.23;19.93;;;3.90;99.90;;;;;;10547521;28;20204;-81
2023/01/26 08:10:32;;;;;;;23.25;20.25;;;3.90;99.90;;;;;;10495611;28;20291;-79
2023/01/26 08:15:34;;;;;;;21.47;17.83;;;4.10;99.90;;;;;;10524179;28;20230;-79
2023/01/26 08:20:36;;;;;;;19.80;17.70;;;4.30;99.90;;;;;;10536853;28;20216;-81
2023/01/26 08:25:40;;;;;;;20.07;17.87;;;4.20;99.90;;;;;;10509128;28;20203;-81
2023/01/26 08:30:42;;;;;;;19.42;16.42;;;4.10;99.90;;;;;;10519249;28;20222;-78
2023/01/26 08:35:44;;;;;;;21.50;18.90;;;4.20;99.90;;;;;;10545205;28;20199;-78
2023/01/26 08:40:53;;;;;;;17.43;15.53;;;4.30;99.90;;;;;;10530548;28;20230;-78
2023/01/26 08:45:55;;;;;;;21.23;18.57;;;4.20;99.90;;;;;;10502883;28;20220;-80
2023/01/26 08:50:59;;;;;;;18.23;16.40;;;4.20;99.90;;;;;;10503503;28;20633;-81
2023/01/26 08:56:09;;;;;;;14.20;12.70;;;4.10;99.90;;;;;;10511881;28;20279;-78
2023/01/26 09:01:13;;;;;;;14.27;12.63;;;4.20;99.70;;;;;;10519271;28;20214;-81
2023/01/26 09:06:16;;;;;;;16.60;14.30;;;4.10;99.90;;;;;;10504731;28;20657;-80
2023/01/26 09:11:19;;;;;;;18.10;14.30;;;4.20;99.90;;;;;;10537073;28;20224;-81
2023/01/26 09:16:22;;;;;;;20.10;17.10;;;4.20;99.60;;;;;;10529017;28;20437;-81
2023/01/26 09:21:24;;;;;;;19.77;16.90;;;4.20;99.90;;;;;;10528682;28;20242;-80
2023/01/26 09:26:28;;;;;;;19.60;17.50;;;4.20;99.90;;;;;;10529920;28;20279;-81
2023/01/26 09:31:30;;;;;;;17.97;16.13;;;4.30;99.90;;;;;;10528319;28;20231;-79
2023/01/26 09:36:33;;;;;;;15.17;13.57;;;4.30;99.60;;;;;;10524841;28;20216;-80
2023/01/26 09:41:51;;;;;;;14.03;12.57;;;4.30;99.40;;;;;;10528947;28;20248;-79
2023/01/26 09:47:03;;;;;;;15.73;13.90;;;4.30;99.80;;;;;;10526572;28;20200;-79
2023/01/26 09:52:14;;;;;;;14.70;13.10;;;4.50;99.30;;;;;;10509860;28;20212;-79
2023/01/26 09:57:19;;;;;;;15.47;13.23;;;4.50;98.50;;;;;;10511313;28;20752;-80
2023/01/26 10:02:34;;;;;;;15.50;13.57;;;4.40;98.20;;;;;;10531107;28;20653;-80
2023/01/26 10:07:36;;;;;;;18.40;15.40;;;4.40;99.10;;;;;;10535512;28;20208;-81
2023/01/26 10:12:40;;;;;;;19.10;15.80;;;4.40;99.00;;;;;;10511230;28;20192;-81
2023/01/26 10:17:44;;;;;;;17.50;15.33;;;4.40;99.50;;;;;;10532974;28;20735;-80
2023/01/26 10:22:50;;;;;;;18.50;15.40;;;4.40;98.70;;;;;;10525603;28;20222;-81
2023/01/26 10:27:54;;;;;;;18.50;15.43;;;4.30;99.30;;;;;;10531554;28;20592;-80
2023/01/26 10:32:56;;;;;;;13.65;12.20;;;4.50;99.20;;;;;;10523564;28;20192;-80
2023/01/26 10:37:58;;;;;;;13.07;11.60;;;4.70;98.30;;;;;;10521306;28;20239;-80
2023/01/26 10:43:02;;;;;;;11.93;10.67;;;4.70;98.40;;;;;;10505626;28;20200;-81
2023/01/26 10:48:11;;;;;;;11.07;9.97;;;4.60;98.10;;;;;;10521889;28;20297;-81
2023/01/26 10:53:17;;;;;;;12.03;10.77;;;4.50;97.70;;;;;;10504558;28;20313;-81
2023/01/26 10:58:47;;;;;;;11.23;10.10;;;4.60;96.80;;;;;;10511099;28;20969;-80
2023/01/26 11:04:03;;;;;;;13.70;11.07;;;4.80;97.50;;;;;;10534826;28;20199;-80
2023/01/26 11:09:11;;;;;;;12.20;10.97;;;4.70;97.50;;;;;;10511070;28;20274;-81
2023/01/26 11:14:16;;;;;;;12.40;10.70;;;4.60;97.20;;;;;;10513978;28;20212;-80
2023/01/26 11:19:37;;;;;;;13.17;11.87;;;4.60;97.50;;;;;;10526858;28;20290;-80
2023/01/26 11:24:46;;;;;;;13.80;12.47;;;4.80;96.60;;;;;;10527649;28;20199;-79
2023/01/26 11:30:10;;;;;;;14.13;12.63;;;4.60;97.40;;;;;;10524988;28;20239;-80
2023/01/26 11:35:21;;;;;;;14.02;12.13;;;4.50;97.40;;;;;;10493703;28;20289;-81
2023/01/26 11:40:30;;;;;;;16.70;14.47;;;4.60;97.20;;;;;;10528348;28;20784;-81
2023/01/26 11:45:43;;;;;;;15.43;13.30;;;4.40;97.60;;;;;;10483384;28;20201;-81
2023/01/26 11:50:50;;;;;;;15.43;13.63;;;4.30;98.20;;;;;;10506688;28;20306;-80
2023/01/26 11:56:04;;;;;;;17.10;14.20;;;4.20;98.20;;;;;;10524556;28;20227;-81
2023/01/26 12:01:14;;;;;;;14.53;11.80;;;4.20;98.50;;;;;;10522448;28;20216;-80
2023/01/26 12:06:18;;;;;;;14.30;12.30;;;4.10;98.70;;;;;;10522496;28;20273;-80
2023/01/26 12:11:26;;;;;;;17.80;13.77;;;4.10;98.40;;;;;;10522612;28;20583;-81
2023/01/26 12:16:40;;;;;;;13.70;12.20;;;4.10;98.70;;;;;;10520587;28;20283;-81
2023/01/26 12:21:45;;;;;;;16.10;13.40;;;4.10;98.20;;;;;;10488941;28;20254;-81
2023/01/26 12:26:50;;;;;;;14.17;11.67;;;4.20;98.00;;;;;;10480270;28;20223;-81
2023/01/26 12:31:58;;;;;;;14.43;12.93;;;4.20;98.30;;;;;;10541274;28;20558;-81
2023/01/26 12:37:21;;;;;;;14.43;12.93;;;4.20;97.90;;;;;;10535485;28;20232;-82
2023/01/26 12:42:35;;;;;;;14.43;12.93;;;4.20;98.00;;;;;;10499480;28;20192;-80
2023/01/26 12:47:44;;;;;;;14.73;13.23;;;4.20;97.80;;;;;;10512205;28;20227;-81
2023/01/26 12:52:50;;;;;;;16.43;14.33;;;4.20;97.60;;;;;;10486072;28;20186;-80
2023/01/26 12:57:54;;;;;;;16.97;14.03;;;4.20;98.20;;;;;;10511198;28;20228;-82
2023/01/26 13:03:02;;;;;;;17.33;14.20;;;4.20;97.80;;;;;;10511587;28;20797;-81
2023/01/26 13:08:39;;;;;;;19.47;16.40;;;4.10;98.00;;;;;;10515924;28;20641;-81
2023/01/26 13:13:54;;;;;;;22.20;18.90;;;4.10;97.80;;;;;;10491719;28;20216;-82
2023/01/26 13:18:59;;;;;;;21.60;18.77;;;4.10;98.30;;;;;;10520705;28;20223;-79
2023/01/26 13:24:01;;;;;;;22.00;18.90;;;4.10;97.90;;;;;;10500748;28;20200;-80
2023/01/26 13:29:30;;;;;;;20.73;16.93;;;4.00;98.30;;;;;;10500657;28;20225;-79
2023/01/26 13:34:39;;;;;;;25.10;19.30;;;4.00;98.70;;;;;;10546489;28;20207;-79
2023/01/26 13:39:46;;;;;;;25.90;18.07;;;4.00;99.00;;;;;;10539235;28;20682;-80
2023/01/26 13:44:54;;;;;;;21.77;18.17;;;4.00;98.80;;;;;;10520694;28;20200;-81
2023/01/26 13:49:57;;;;;;;23.27;18.53;;;4.00;98.50;;;;;;10550279;28;20220;-80
2023/01/26 13:55:01;;;;;;;20.57;18.37;;;4.00;98.50;;;;;;10542107;28;20277;-81
2023/01/26 14:00:05;;;;;;;21.08;17.63;;;4.10;98.00;;;;;;10554051;28;20286;-80
2023/01/26 14:05:21;;;;;;;21.90;18.43;;;4.20;98.20;;;;;;10557875;28;20626;-81
2023/01/26 14:10:24;;;;;;;18.97;16.97;;;4.20;98.00;;;;;;10492174;28;20234;-81
2023/01/26 14:15:28;;;;;;;21.37;18.37;;;4.20;98.20;;;;;;10496015;28;20268;-80
2023/01/26 14:20:35;;;;;;;22.93;19.27;;;4.20;97.60;;;;;;10504702;28;20211;-81
2023/01/26 14:25:37;;;;;;;19.93;17.80;;;4.10;98.10;;;;;;10507925;28;20671;-81
2023/01/26 14:30:40;;;;;;;25.50;18.53;;;4.10;98.20;;;;;;10529640;28;20558;-80
2023/01/26 14:35:55;;;;;;;25.90;19.07;;;4.10;97.70;;;;;;10550513;28;20210;-80
2023/01/26 14:40:59;;;;;;;21.53;19.17;;;4.00;98.10;;;;;;10504901;28;20263;-79
2023/01/26 14:46:07;;;;;;;24.00;19.45;;;4.00;98.40;;;;;;10543971;28;20299;-81
2023/01/26 14:51:18;;;;;;;21.53;18.60;;;4.20;98.20;;;;;;10548332;28;20227;-81
2023/01/26 14:56:28;;;;;;;19.80;17.40;;;4.20;97.80;;;;;;10505517;28;20252;-80
2023/01/26 15:01:31;;;;;;;23.67;19.10;;;4.20;97.80;;;;;;10515529;28;20231;-81
2023/01/26 15:06:34;;;;;;;22.80;19.30;;;4.10;98.70;;;;;;10497481;28;20564;-81
2023/01/26 15:16:57;;;;;;;19.83;16.43;;;4.10;98.10;;;;;;10504248;28;20686;-80
2023/01/26 15:22:01;;;;;;;19.60;16.10;;;4.00;97.60;;;;;;10545248;28;20196;-80
2023/01/26 15:27:07;;;;;;;20.00;15.83;;;4.00;97.80;;;;;;10495495;28;20772;-81
2023/01/26 15:32:28;;;;;;;19.40;16.27;;;3.90;97.80;;;;;;10527903;28;20294;-80
2023/01/26 15:37:34;;;;;;;20.23;17.00;;;4.00;97.90;;;;;;10528702;28;20705;-79
2023/01/26 15:42:36;;;;;;;20.43;16.57;;;3.90;98.20;;;;;;10525170;28;20235;-80
2023/01/26 15:47:38;;;;;;;17.87;15.90;;;4.00;98.10;;;;;;10476496;28;20667;-80
2023/01/26 15:52:41;;;;;;;19.23;16.97;;;4.00;97.70;;;;;;10473138;28;20284;-81
2023/01/26 15:57:43;;;;;;;18.77;16.73;;;4.00;98.40;;;;;;10521842;28;20705;-81
2023/01/26 16:02:46;;;;;;;18.50;15.77;;;3.90;98.00;;;;;;10505451;28;20204;-79
2023/01/26 16:07:49;;;;;;;22.50;18.30;;;3.90;98.40;;;;;;10544237;28;20223;-80
2023/01/26 16:12:51;;;;;;;23.50;17.67;;;3.90;98.90;;;;;;10536060;28;20215;-80
2023/01/26 16:17:54;;;;;;;22.60;18.57;;;3.90;99.30;;;;;;10531843;28;20695;-82
2023/01/26 16:22:57;;;;;;;22.87;16.43;;;3.90;98.70;;;;;;10538620;28;20206;-82
2023/01/26 16:33:34;;;;;;;18.97;15.57;;;4.10;98.60;;;;;;10543630;28;20234;-81
2023/01/26 16:38:37;;;;;;;21.17;16.50;;;4.10;98.60;;;;;;10546780;28;20216;-81
2023/01/26 16:43:41;;;;;;;20.37;16.50;;;4.20;97.90;;;;;;10507014;28;20203;-79
2023/01/26 16:48:43;;;;;;;19.90;16.33;;;4.20;97.80;;;;;;10481963;28;20211;-81
2023/01/26 16:53:47;;;;;;;20.83;17.50;;;4.10;98.10;;;;;;10478293;28;20204;-81
2023/01/26 16:58:49;;;;;;;21.87;17.60;;;4.00;98.40;;;;;;10499365;28;20219;-82
2023/01/26 17:03:51;;;;;;;20.57;17.43;;;4.00;98.00;;;;;;10514209;28;20227;-81
2023/01/26 17:08:55;;;;;;;17.77;15.57;;;4.00;97.70;;;;;;10533879;28;20224;-81
2023/01/26 17:13:58;;;;;;;20.20;17.02;;;3.90;98.60;;;;;;10524498;28;20231;-80
2023/01/26 17:19:00;;;;;;;19.23;17.13;;;4.10;98.90;;;;;;10512426;28;20215;-81
2023/01/26 17:24:05;;;;;;;19.23;16.70;;;4.10;98.90;;;;;;10490933;28;20262;-81
2023/01/26 17:29:08;;;;;;;17.63;15.70;;;4.00;99.10;;;;;;10515078;28;20224;-79
2023/01/26 17:34:10;;;;;;;18.20;16.38;;;3.90;99.20;;;;;;10545560;28;20189;-78
2023/01/26 17:39:13;;;;;;;17.17;15.57;;;4.00;99.60;;;;;;10561584;28;20227;-79
2023/01/26 17:44:15;;;;;;;15.73;14.10;;;4.00;99.40;;;;;;10521796;28;20203;-79
2023/01/26 17:49:20;;;;;;;17.50;14.37;;;3.90;99.40;;;;;;10504907;28;20232;-79
2023/01/26 17:54:23;;;;;;;17.40;15.60;;;3.80;99.20;;;;;;10509446;28;20246;-79
2023/01/26 17:59:26;;;;;;;16.43;14.83;;;3.70;99.80;;;;;;10530374;28;20690;-79
2023/01/26 18:04:28;;;;;;;17.40;14.50;;;3.70;99.70;;;;;;10524317;28;20233;-79
2023/01/26 18:09:32;;;;;;;14.23;12.83;;;3.70;99.70;;;;;;10542559;28;20228;-79
2023/01/26 18:14:34;;;;;;;16.27;14.57;;;3.70;99.90;;;;;;10506995;28;20230;-79
2023/01/26 18:19:36;;;;;;;17.02;15.40;;;3.70;99.70;;;;;;10544285;28;20291;-78
2023/01/26 18:24:40;;;;;;;16.83;15.33;;;3.80;99.80;;;;;;10546121;28;20204;-79
2023/01/26 18:29:42;;;;;;;17.17;15.40;;;3.90;99.00;;;;;;10532502;28;20627;-78
2023/01/26 18:34:45;;;;;;;17.53;15.20;;;3.70;99.20;;;;;;10526696;28;20662;-80
2023/01/26 18:39:48;;;;;;;16.37;14.77;;;3.70;98.90;;;;;;10525884;28;20311;-79
2023/01/26 18:44:50;;;;;;;16.97;15.37;;;3.60;99.40;;;;;;10525443;28;20249;-78
2023/01/26 18:49:52;;;;;;;17.47;15.70;;;3.60;99.40;;;;;;10544681;28;20226;-79
2023/01/26 18:54:56;;;;;;;17.63;15.93;;;3.50;99.50;;;;;;10543120;28;20201;-78
2023/01/26 18:59:58;;;;;;;19.20;17.45;;;3.70;99.90;;;;;;10544250;28;20306;-78
2023/01/26 19:05:00;;;;;;;21.10;19.00;;;3.80;99.50;;;;;;10544180;28;20226;-79
2023/01/26 19:10:04;;;;;;;20.63;18.37;;;3.80;99.50;;;;;;10542784;28;20223;-79
2023/01/26 19:15:08;;;;;;;21.60;19.50;;;3.70;99.80;;;;;;10544065;28;20211;-79
2023/01/26 19:20:11;;;;;;;22.87;20.50;;;3.60;99.90;;;;;;10539442;28;20208;-78
2023/01/26 19:25:15;;;;;;;20.80;18.93;;;3.50;99.90;;;;;;10544506;28;20200;-79
2023/01/26 19:30:18;;;;;;;22.00;20.00;;;3.50;99.90;;;;;;10543531;28;20243;-80
2023/01/26 19:35:20;;;;;;;23.83;21.33;;;3.50;99.90;;;;;;10518998;28;20695;-80
2023/01/26 19:40:24;;;;;;;22.37;20.17;;;3.40;99.50;;;;;;10509847;28;20232;-79
2023/01/26 19:45:26;;;;;;;21.20;19.10;;;3.40;99.90;;;;;;10527507;28;20222;-79
2023/01/26 19:50:28;;;;;;;21.03;18.70;;;3.50;99.60;;;;;;10546499;28;20480;-78
2023/01/26 19:55:33;;;;;;;22.77;20.53;;;3.70;99.70;;;;;;10526702;28;20828;-80
2023/01/26 20:00:35;;;;;;;22.90;20.80;;;3.60;99.20;;;;;;10528139;28;20307;-79
2023/01/26 20:05:38;;;;;;;23.60;21.13;;;3.50;99.60;;;;;;10509722;28;20718;-79
2023/01/26 20:10:41;;;;;;;22.40;20.00;;;3.40;99.60;;;;;;10523974;28;20234;-80
2023/01/26 20:15:47;;;;;;;22.23;19.90;;;3.40;99.90;;;;;;10521944;28;20273;-79
2023/01/26 20:20:50;;;;;;;21.90;19.80;;;3.40;99.80;;;;;;10506973;28;20223;-79
2023/01/26 20:26:00;;;;;;;21.87;19.83;;;3.40;99.40;;;;;;10521476;28;20727;-80
2023/01/26 20:31:08;;;;;;;20.80;18.63;;;3.30;99.40;;;;;;10542557;28;20639;-79
2023/01/26 20:36:12;;;;;;;23.42;20.95;;;3.30;99.20;;;;;;10520089;28;20204;-77
2023/01/26 20:41:18;;;;;;;22.37;20.07;;;3.50;99.30;;;;;;10498240;28;20315;-78
2023/01/26 20:46:23;;;;;;;22.77;20.53;;;3.50;99.40;;;;;;10496024;28;20208;-78
2023/01/26 20:51:29;;;;;;;23.13;20.83;;;3.50;99.20;;;;;;10506990;28;20584;-78
2023/01/26 20:56:32;;;;;;;25.25;22.67;;;3.40;99.40;;;;;;10490101;28;20211;-77
2023/01/26 21:01:35;;;;;;;21.07;19.07;;;3.50;99.40;;;;;;10512862;28;20230;-78
2023/01/26 21:06:38;;;;;;;23.83;21.47;;;3.50;99.70;;;;;;10517182;28;20263;-79
2023/01/26 21:11:41;;;;;;;23.00;20.63;;;3.50;99.50;;;;;;10512421;28;20676;-79
2023/01/26 21:16:43;;;;;;;22.73;20.33;;;3.50;99.30;;;;;;10534053;28;20200;-79
2023/01/26 21:21:46;;;;;;;20.27;18.48;;;3.60;98.90;;;;;;10505639;28;20287;-77
2023/01/26 21:26:50;;;;;;;21.77;19.67;;;3.70;98.30;;;;;;10502461;28;20196;-79
2023/01/26 21:31:52;;;;;;;22.23;20.13;;;3.60;98.50;;;;;;10528371;28;20563;-79
2023/01/26 21:36:54;;;;;;;23.33;21.03;;;3.50;98.60;;;;;;10526598;28;20204;-79
2023/01/26 21:41:59;;;;;;;25.73;23.13;;;3.40;98.60;;;;;;10546360;28;20200;-79
2023/01/26 21:47:03;;;;;;;23.10;20.43;;;3.30;98.60;;;;;;10546771;28;20212;-78
2023/01/26 22:02:59;;;;;;;21.80;19.70;;;3.40;98.50;;;;;;10526321;28;20228;-78
2023/01/26 22:08:01;;;;;;;20.33;18.33;;;3.40;98.60;;;;;;10509467;28;20219;-79
2023/01/26 22:13:05;;;;;;;24.57;20.93;;;3.30;98.20;;;;;;10526400;28;20302;-76
2023/01/26 22:18:07;;;;;;;25.47;22.17;;;3.30;98.30;;;;;;10524162;28;20704;-78
2023/01/26 22:23:09;;;;;;;21.17;19.07;;;3.30;98.90;;;;;;10522176;28;20184;-78
2023/01/26 22:28:13;;;;;;;25.77;22.30;;;3.30;97.90;;;;;;10540330;28;20224;-78
2023/01/26 22:33:15;;;;;;;24.30;21.83;;;3.20;98.40;;;;;;10539773;28;20247;-78
2023/01/26 22:38:17;;;;;;;24.00;21.60;;;3.20;98.80;;;;;;10533593;28;20238;-78
2023/01/26 22:43:21;;;;;;;23.70;20.97;;;3.20;98.60;;;;;;10499246;28;20249;-78
2023/01/26 22:48:23;;;;;;;23.73;21.37;;;3.20;99.00;;;;;;10525913;28;20687;-78
2023/01/26 22:53:25;;;;;;;23.23;21.03;;;3.20;98.70;;;;;;10525747;28;20233;-78
2023/01/26 22:58:28;;;;;;;23.67;21.30;;;3.20;98.20;;;;;;10514464;28;20495;-78
2023/01/26 23:03:30;;;;;;;20.83;18.60;;;3.40;98.40;;;;;;10536631;28;20720;-77
2023/01/26 23:08:33;;;;;;;22.40;20.20;;;3.40;98.30;;;;;;10526697;28;20310;-78
2023/01/26 23:13:36;;;;;;;21.40;19.30;;;3.30;98.30;;;;;;10537399;28;20224;-78
2023/01/26 23:18:39;;;;;;;21.83;19.53;;;3.30;98.50;;;;;;10491224;28;20224;-78
2023/01/26 23:23:41;;;;;;;20.67;18.70;;;3.30;98.10;;;;;;10537444;28;20200;-78
2023/01/26 23:28:45;;;;;;;22.00;19.70;;;3.30;98.40;;;;;;10515478;28;20310;-78
2023/01/26 23:33:47;;;;;;;23.33;20.83;;;3.40;98.10;;;;;;10520218;28;20220;-78
2023/01/26 23:38:53;;;;;;;24.77;22.30;;;3.50;97.60;;;;;;10533313;28;20765;-78
2023/01/26 23:43:56;;;;;;;23.53;21.13;;;3.40;98.20;;;;;;10534193;28;20201;-80
2023/01/26 23:48:58;;;;;;;22.90;20.53;;;3.40;98.20;;;;;;10515834;28;20224;-77
2023/01/26 23:54:00;;;;;;;24.80;22.30;;;3.50;98.10;;;;;;10515596;28;20520;-77
2023/01/26 23:59:04;;;;;;;25.57;23.03;;;3.50;97.60;;;;;;10506952;28;20220;-78
